Time;durP1;ratioP1;P1;durP2;ratioP2;P2;SDS_P1;SDS_P2;PMS_P1;PMS_P2;Temp;Humidity;BMP_temperature;BMP_pressure;BME280_temperature;BME280_humidity;BME280_pressure;Samples;Min_cycle;Max_cycle;Signal;HPM_P1;HPM_P2
2023/06/29 00:02:24;;;;;;;;;;;;;;;22.26;29.53;97767.81;5019106;28;1067;-74
2023/06/29 00:04:50;;;;;;;;;;;;;;;22.30;29.48;97772.13;4994567;28;904;-75
2023/06/29 00:07:16;;;;;;;;;;;;;;;22.34;29.57;97777.69;4978404;28;1530;-74
2023/06/29 00:09:42;;;;;;;;;;;;;;;22.35;29.61;97774.41;4962433;28;1507;-74
2023/06/29 00:12:07;;;;;;;;;;;;;;;22.52;29.47;97794.09;4978678;28;1040;-75
2023/06/29 00:14:33;;;;;;;;;;;;;;;22.48;29.53;97793.41;4994510;28;1967;-74
2023/06/29 00:16:58;;;;;;;;;;;;;;;22.50;29.75;97785.25;4994864;28;967;-75
2023/06/29 00:19:24;;;;;;;;;;;;;;;22.55;29.70;97773.34;4978346;28;1113;-74
2023/06/29 00:21:49;;;;;;;;;;;;;;;22.43;29.90;97765.63;4994767;28;1002;-75
2023/06/29 00:24:15;;;;;;;;;;;;;;;22.38;29.91;97766.22;4978232;28;1205;-74
2023/06/29 00:26:41;;;;;;;;;;;;;;;22.31;30.05;97768.03;4994421;28;1137;-76
2023/06/29 00:29:06;;;;;;;;;;;;;;;22.33;30.04;97759.91;4956035;29;1002;-74
2023/06/29 00:31:34;;;;;;;;;;;;;;;22.35;30.26;97757.38;4940074;29;1000;-74
2023/06/29 00:34:00;;;;;;;;;;;;;;;22.31;30.05;97756.72;4939465;29;1211;-75
2023/06/29 00:36:26;;;;;;;;;;;;;;;22.55;29.52;97747.81;4969731;28;1906;-74
2023/06/29 00:38:53;;;;;;;;;;;;;;;22.57;29.55;97750.97;4978019;28;1146;-74
2023/06/29 00:41:18;;;;;;;;;;;;;;;22.50;29.66;97756.91;4978303;28;987;-74
2023/06/29 00:43:45;;;;;;;;;;;;;;;22.24;29.95;97756.94;4974510;28;1211;-75
2023/06/29 00:46:11;;;;;;;;;;;;;;;22.60;29.52;97761.41;4974927;28;920;-74
2023/06/29 00:48:36;;;;;;;;;;;;;;;19.71;30.21;97335.66;4946140;28;1495;-74
2023/06/29 00:51:02;;;;;;;;;;;;;;;22.39;29.93;97756.47;4962811;28;1169;-75
2023/06/29 00:53:28;;;;;;;;;;;;;;;22.41;29.85;97762.47;4962537;28;1027;-74
2023/06/29 00:55:53;;;;;;;;;;;;;;;22.48;29.55;97770.72;4978567;28;1910;-75
2023/06/29 00:58:19;;;;;;;;;;;;;;;22.61;29.38;97774.34;4978645;28;1536;-74
2023/06/29 01:00:45;;;;;;;;;;;;;;;22.63;29.33;97771.84;5009125;28;1294;-75
2023/06/29 01:03:11;;;;;;;;;;;;;;;22.51;29.77;97752.81;5001069;28;957;-74
2023/06/29 01:05:41;;;;;;;;;;;;;;;22.36;30.05;97747.63;4985796;28;1446;-74
2023/06/29 01:08:25;;;;;;;;;;;;;;;22.43;29.87;97745.78;5017504;28;1210;-74
2023/06/29 01:10:51;;;;;;;;;;;;;;;22.49;29.71;97741.16;5001349;28;1013;-74
2023/06/29 01:13:16;;;;;;;;;;;;;;;22.61;29.61;97746.00;5001483;28;946;-75
2023/06/29 01:15:42;;;;;;;;;;;;;;;22.56;29.54;97749.41;4984876;28;1914;-73
2023/06/29 01:18:07;;;;;;;;;;;;;;;22.74;29.52;97743.91;5001240;28;1100;-75
2023/06/29 01:20:33;;;;;;;;;;;;;;;22.73;29.37;97742.31;5007895;28;1023;-75
2023/06/29 01:23:05;;;;;;;;;;;;;;;22.47;29.92;97740.81;5021739;28;1140;-75
2023/06/29 01:25:30;;;;;;;;;;;;;;;22.54;29.79;97730.03;5037899;28;873;-74
2023/06/29 01:27:56;;;;;;;;;;;;;;;22.67;29.82;97727.13;4981393;28;1124;-74
2023/06/29 01:30:23;;;;;;;;;;;;;;;22.61;29.86;97721.25;4997554;28;974;-74
2023/06/29 01:32:48;;;;;;;;;;;;;;;22.43;30.24;97728.78;4981457;28;991;-74
2023/06/29 01:35:14;;;;;;;;;;;;;;;22.49;30.22;97738.31;4981000;28;1903;-74
2023/06/29 01:37:50;;;;;;;;;;;;;;;22.38;30.27;97747.16;4980935;28;986;-74
2023/06/29 01:40:17;;;;;;;;;;;;;;;22.60;29.72;97738.75;4997360;28;1295;-75
2023/06/29 01:42:42;;;;;;;;;;;;;;;22.62;29.43;97739.06;4981144;28;966;-74
2023/06/29 01:45:08;;;;;;;;;;;;;;;22.66;29.36;97730.44;4980928;28;991;-75
2023/06/29 01:47:34;;;;;;;;;;;;;;;22.70;29.31;97726.22;4997322;28;1209;-74
2023/06/29 01:49:59;;;;;;;;;;;;;;;22.66;29.42;97741.78;4981093;28;1027;-75
2023/06/29 01:52:25;;;;;;;;;;;;;;;22.51;29.85;97752.81;5013445;28;1095;-76
2023/06/29 01:54:52;;;;;;;;;;;;;;;22.47;29.80;97769.16;4981147;28;1910;-74
2023/06/29 01:57:18;;;;;;;;;;;;;;;22.54;29.63;97785.94;4980755;28;892;-75
2023/06/29 01:59:44;;;;;;;;;;;;;;;22.58;29.52;97786.59;5010375;28;1288;-75
2023/06/29 02:02:09;;;;;;;;;;;;;;;22.65;29.34;97786.38;5037099;28;884;-75
2023/06/29 02:04:35;;;;;;;;;;;;;;;22.62;29.55;97787.28;5016442;28;988;-74
2023/06/29 02:07:01;;;;;;;;;;;;;;;22.73;29.29;97792.56;4983772;28;1330;-75
2023/06/29 02:09:27;;;;;;;;;;;;;;;22.58;29.67;97786.59;4984126;28;1214;-75
2023/06/29 02:11:52;;;;;;;;;;;;;;;22.38;30.05;97780.38;4999978;28;1125;-75
2023/06/29 02:14:18;;;;;;;;;;;;;;;22.48;29.62;97765.06;4977167;28;1902;-74
2023/06/29 02:16:45;;;;;;;;;;;;;;;22.40;29.83;97752.41;4957700;29;1100;-75
2023/06/29 02:19:12;;;;;;;;;;;;;;;22.39;29.85;97751.59;4958249;28;1093;-74
2023/06/29 02:21:38;;;;;;;;;;;;;;;22.63;29.44;97743.47;4941787;29;1158;-74
2023/06/29 02:24:04;;;;;;;;;;;;;;;22.55;29.56;97745.00;4925973;29;1552;-75
2023/06/29 02:26:29;;;;;;;;;;;;;;;22.62;29.35;97751.19;4941889;29;985;-75
2023/06/29 02:28:55;;;;;;;;;;;;;;;22.58;29.41;97733.50;4957408;29;952;-75
2023/06/29 02:31:22;;;;;;;;;;;;;;;22.87;28.57;97730.47;4941639;29;999;-74
2023/06/29 02:33:48;;;;;;;;;;;;;;;22.58;29.51;97746.91;4941644;29;1121;-74
2023/06/29 02:36:15;;;;;;;;;;;;;;;22.60;29.03;97755.75;4955449;28;1899;-75
2023/06/29 02:38:41;;;;;;;;;;;;;;;22.52;29.63;97754.41;4980198;28;1168;-74
2023/06/29 02:41:07;;;;;;;;;;;;;;;22.58;29.31;97767.53;4964102;28;1208;-74
2023/06/29 02:43:33;;;;;;;;;;;;;;;22.51;29.18;97769.84;4963862;28;1385;-75
2023/06/29 02:45:59;;;;;;;;;;;;;;;22.38;29.65;97766.22;5011710;28;953;-74
2023/06/29 02:48:28;;;;;;;;;;;;;;;22.47;29.41;97769.16;5028679;28;1137;-74
2023/06/29 02:50:53;;;;;;;;;;;;;;;22.45;29.35;97763.16;5036554;28;1150;-75
2023/06/29 02:53:19;;;;;;;;;;;;;;;22.65;29.20;97758.00;5037804;28;957;-74
2023/06/29 02:55:45;;;;;;;;;;;;;;;22.43;29.36;97757.13;5035238;28;1909;-74
2023/06/29 02:58:10;;;;;;;;;;;;;;;22.50;29.41;97752.03;5002287;28;1136;-77
2023/06/29 03:00:37;;;;;;;;;;;;;;;22.39;29.12;97756.47;5003107;28;1107;-74
2023/06/29 03:03:02;;;;;;;;;;;;;;;22.52;29.32;97760.06;5018764;28;1016;-75
2023/06/29 03:05:28;;;;;;;;;;;;;;;22.55;29.05;97779.00;4999017;28;1037;-74
2023/06/29 03:07:54;;;;;;;;;;;;;;;22.41;29.20;97754.75;4966536;28;1181;-75
2023/06/29 03:10:19;;;;;;;;;;;;;;;22.70;28.73;97762.31;5015052;28;1035;-74
2023/06/29 03:12:45;;;;;;;;;;;;;;;22.26;29.53;97750.81;4976100;28;1076;-75
2023/06/29 03:15:10;;;;;;;;;;;;;;;22.61;28.84;97734.66;4960074;28;1903;-74
2023/06/29 03:17:36;;;;;;;;;;;;;;;22.24;29.54;97734.28;4944063;28;1168;-75
2023/06/29 03:20:02;;;;;;;;;;;;;;;22.41;29.32;97753.97;4960223;28;938;-75
2023/06/29 03:22:28;;;;;;;;;;;;;;;22.53;28.97;97755.97;4960188;28;917;-74
2023/06/29 03:24:53;;;;;;;;;;;;;;;22.63;29.06;97754.81;4975764;28;991;-75
2023/06/29 03:27:19;;;;;;;;;;;;;;;22.58;28.95;97764.69;4929609;29;1058;-74
2023/06/29 03:29:45;;;;;;;;;;;;;;;22.51;29.18;97761.31;4940798;29;972;-74
2023/06/29 03:32:10;;;;;;;;;;;;;;;22.65;29.03;97769.34;4924644;29;1140;-76
2023/06/29 03:34:36;;;;;;;;;;;;;;;22.26;29.62;97754.44;4902555;29;1907;-74
2023/06/29 03:37:01;;;;;;;;;;;;;;;22.44;29.40;97775.75;4914801;29;1233;-74
2023/06/29 03:39:27;;;;;;;;;;;;;;;22.44;29.53;97798.44;4924571;29;967;-75
2023/06/29 03:41:52;;;;;;;;;;;;;;;22.57;29.17;97796.34;4924879;29;1036;-75
2023/06/29 03:44:18;;;;;;;;;;;;;;;22.59;29.44;97776.84;4952319;28;989;-75
2023/06/29 03:46:43;;;;;;;;;;;;;;;22.60;29.20;97773.56;4994957;28;971;-75
2023/06/29 03:49:09;;;;;;;;;;;;;;;22.24;29.69;97790.16;4978668;28;1207;-75
2023/06/29 03:51:34;;;;;;;;;;;;;;;22.38;29.75;97803.06;4962614;28;1212;-75
2023/06/29 03:53:59;;;;;;;;;;;;;;;22.63;29.23;97800.97;4978775;28;1187;-74
2023/06/29 03:56:25;;;;;;;;;;;;;;;22.45;29.46;97783.00;4946338;28;1981;-74
2023/06/29 03:58:52;;;;;;;;;;;;;;;22.61;29.07;97780.81;4978652;28;949;-74
2023/06/29 04:01:17;;;;;;;;;;;;;;;22.62;29.14;97781.59;4956151;29;965;-74
2023/06/29 04:03:42;;;;;;;;;;;;;;;22.31;29.67;97793.56;4940142;29;1044;-74
2023/06/29 04:06:08;;;;;;;;;;;;;;;22.54;29.37;97785.94;4920621;29;980;-74
2023/06/29 04:08:33;;;;;;;;;;;;;;;22.71;28.88;97795.88;4936859;29;1200;-75
2023/06/29 04:10:59;;;;;;;;;;;;;;;22.42;29.49;97795.25;4923491;28;1542;-75
2023/06/29 04:13:24;;;;;;;;;;;;;;;22.41;29.56;97793.66;4975437;28;969;-74
2023/06/29 04:15:50;;;;;;;;;;;;;;;22.44;29.46;97781.44;4942824;28;1986;-74
2023/06/29 04:18:15;;;;;;;;;;;;;;;22.63;29.06;97766.16;4958895;28;1132;-74
2023/06/29 04:20:41;;;;;;;;;;;;;;;22.60;29.27;97784.09;4975477;28;997;-74
2023/06/29 04:23:06;;;;;;;;;;;;;;;22.61;29.68;97774.34;4975072;28;966;-75
2023/06/29 04:25:33;;;;;;;;;;;;;;;22.39;30.02;97777.13;4975213;28;976;-75
2023/06/29 04:27:59;;;;;;;;;;;;;;;22.46;30.01;97784.59;4943044;28;1194;-75
2023/06/29 04:30:24;;;;;;;;;;;;;;;22.74;29.62;97789.28;4958877;28;923;-75
2023/06/29 04:32:50;;;;;;;;;;;;;;;22.54;29.84;97786.72;4950414;29;1614;-74
2023/06/29 04:35:15;;;;;;;;;;;;;;;22.72;29.64;97786.09;4939534;29;1892;-75
2023/06/29 04:37:41;;;;;;;;;;;;;;;22.52;29.93;97788.41;4982112;28;1137;-74
2023/06/29 04:40:09;;;;;;;;;;;;;;;22.55;29.69;97784.69;4997602;28;950;-75
2023/06/29 04:42:43;;;;;;;;;;;;;;;22.50;29.94;97791.72;4994011;28;980;-74
2023/06/29 04:45:10;;;;;;;;;;;;;;;22.34;30.39;97795.50;4974555;28;1069;-74
2023/06/29 04:47:35;;;;;;;;;;;;;;;22.60;29.89;97789.78;4942603;28;1073;-74
2023/06/29 04:50:01;;;;;;;;;;;;;;;22.75;29.39;97790.09;4974869;28;964;-75
2023/06/29 04:52:26;;;;;;;;;;;;;;;22.53;29.72;97798.50;4942958;28;1019;-74
2023/06/29 04:54:52;;;;;;;;;;;;;;;22.59;29.69;97805.22;4974634;28;1912;-75
2023/06/29 04:57:17;;;;;;;;;;;;;;;22.63;29.54;97811.53;4958612;28;968;-75
2023/06/29 04:59:43;;;;;;;;;;;;;;;22.41;30.19;97816.34;4974450;28;1081;-75
2023/06/29 05:02:08;;;;;;;;;;;;;;;22.61;29.71;97816.88;4958445;28;944;-75
2023/06/29 05:04:36;;;;;;;;;;;;;;;22.47;29.80;97808.84;4990152;28;949;-75
2023/06/29 05:07:01;;;;;;;;;;;;;;;22.56;29.86;97806.13;4990617;28;900;-75
2023/06/29 05:09:27;;;;;;;;;;;;;;;22.62;29.75;97809.97;4993676;28;1181;-76
2023/06/29 05:11:52;;;;;;;;;;;;;;;22.70;29.67;97817.00;4945834;28;1234;-75
2023/06/29 05:14:18;;;;;;;;;;;;;;;22.75;29.51;97807.91;5009372;28;1045;-75
2023/06/29 05:16:43;;;;;;;;;;;;;;;22.59;29.76;97817.34;5010162;28;1918;-76
2023/06/29 05:19:09;;;;;;;;;;;;;;;22.74;29.64;97812.00;5035996;28;828;-75
2023/06/29 05:21:34;;;;;;;;;;;;;;;22.42;30.16;97809.41;5034519;28;1225;-74
2023/06/29 05:24:00;;;;;;;;;;;;;;;22.67;29.66;97812.22;5034580;28;1157;-75
2023/06/29 05:26:25;;;;;;;;;;;;;;;22.73;29.70;97813.22;5018118;28;1222;-75
2023/06/29 05:28:51;;;;;;;;;;;;;;;22.55;29.98;97805.31;5035646;28;1016;-75
2023/06/29 05:31:16;;;;;;;;;;;;;;;22.52;30.07;97805.44;5017934;28;1207;-75
2023/06/29 05:33:42;;;;;;;;;;;;;;;22.39;30.37;97807.50;5034140;28;1308;-75
2023/06/29 05:36:07;;;;;;;;;;;;;;;22.38;30.02;97812.34;5021437;28;1906;-75
2023/06/29 05:38:33;;;;;;;;;;;;;;;22.41;30.11;97805.00;5039130;28;967;-75
2023/06/29 05:40:58;;;;;;;;;;;;;;;22.56;29.76;97806.13;5021446;28;1156;-76
2023/06/29 05:43:24;;;;;;;;;;;;;;;22.39;30.17;97813.19;5037765;28;1094;-76
2023/06/29 05:45:49;;;;;;;;;;;;;;;22.57;29.65;97814.16;5037677;28;1204;-75
2023/06/29 05:48:14;;;;;;;;;;;;;;;22.68;29.75;97819.47;5037688;28;953;-75
2023/06/29 05:50:40;;;;;;;;;;;;;;;22.53;30.16;97818.34;5020159;28;1026;-75
2023/06/29 05:53:05;;;;;;;;;;;;;;;22.70;30.19;97819.81;5004961;28;1197;-75
2023/06/29 05:55:31;;;;;;;;;;;;;;;22.74;29.96;97829.00;5016628;28;1973;-75
2023/06/29 05:57:57;;;;;;;;;;;;;;;22.96;29.43;97816.94;4984504;28;1064;-75
2023/06/29 06:00:22;;;;;;;;;;;;;;;22.58;30.19;97826.28;5000247;28;1098;-75
2023/06/29 06:02:48;;;;;;;;;;;;;;;22.71;30.08;97829.13;5000393;28;1247;-75
2023/06/29 06:05:14;;;;;;;;;;;;;;;22.73;30.02;97827.41;5016290;28;949;-76
2023/06/29 06:07:39;;;;;;;;;;;;;;;22.51;30.39;97826.53;5000213;28;1144;-76
2023/06/29 06:10:05;;;;;;;;;;;;;;;22.70;30.07;97839.69;5000171;28;984;-77
2023/06/29 06:12:31;;;;;;;;;;;;;;;22.77;29.75;97825.25;4999968;28;952;-76
2023/06/29 06:14:56;;;;;;;;;;;;;;;22.86;29.79;97836.69;4999867;28;1894;-75
2023/06/29 06:17:22;;;;;;;;;;;;;;;22.75;29.82;97829.81;4999903;28;1018;-75
2023/06/29 06:19:47;;;;;;;;;;;;;;;22.77;29.67;97822.41;5000120;28;894;-76
2023/06/29 06:22:13;;;;;;;;;;;;;;;22.87;29.61;97832.59;4977071;28;942;-75
2023/06/29 06:24:38;;;;;;;;;;;;;;;22.80;29.62;97827.19;4945066;28;1150;-75
2023/06/29 06:27:04;;;;;;;;;;;;;;;22.70;29.85;97841.72;4952501;29;975;-76
2023/06/29 06:29:30;;;;;;;;;;;;;;;22.80;29.66;97838.53;4941544;29;1113;-76
2023/06/29 06:31:55;;;;;;;;;;;;;;;22.61;30.16;97845.25;4925555;29;1164;-76
2023/06/29 06:34:20;;;;;;;;;;;;;;;22.63;29.89;97851.25;4957449;29;976;-76
2023/06/29 06:36:47;;;;;;;;;;;;;;;22.73;29.91;97855.75;4903458;29;2031;-76
2023/06/29 06:39:14;;;;;;;;;;;;;;;22.67;30.13;97857.59;4903655;29;1221;-76
2023/06/29 06:41:40;;;;;;;;;;;;;;;22.80;29.66;97843.41;4919251;29;935;-76
2023/06/29 06:44:05;;;;;;;;;;;;;;;22.64;30.16;97855.69;4919370;29;1059;-73
2023/06/29 06:46:32;;;;;;;;;;;;;;;22.67;30.08;97851.91;4903335;29;1069;-72
2023/06/29 06:48:57;;;;;;;;;;;;;;;22.71;30.12;97855.44;4903200;29;957;-73
2023/06/29 06:51:23;;;;;;;;;;;;;;;22.83;29.89;97854.59;4919161;29;984;-73
2023/06/29 06:53:48;;;;;;;;;;;;;;;22.58;30.21;97857.47;4905042;29;958;-73
2023/06/29 06:56:14;;;;;;;;;;;;;;;22.69;30.21;97849.44;4940922;29;1903;-73
2023/06/29 06:58:39;;;;;;;;;;;;;;;22.95;29.77;97855.06;4947563;29;1061;-73
2023/06/29 07:01:06;;;;;;;;;;;;;;;22.79;30.02;97856.75;4957005;29;1001;-73
2023/06/29 07:03:31;;;;;;;;;;;;;;;22.63;30.23;97854.06;4925479;29;1005;-72
2023/06/29 07:05:57;;;;;;;;;;;;;;;22.61;30.20;97856.59;4957347;29;1007;-73
2023/06/29 07:08:23;;;;;;;;;;;;;;;22.68;29.99;97847.81;4947912;29;1288;-73
2023/06/29 07:10:51;;;;;;;;;;;;;;;22.86;29.90;97842.34;4956862;29;973;-72
2023/06/29 07:13:17;;;;;;;;;;;;;;;22.84;29.80;97841.22;4940843;29;1376;-74
2023/06/29 07:15:43;;;;;;;;;;;;;;;22.82;29.62;97836.00;4956996;29;1907;-74
2023/06/29 07:18:09;;;;;;;;;;;;;;;22.68;30.24;97836.47;4940881;29;1257;-74
2023/06/29 07:20:34;;;;;;;;;;;;;;;22.71;30.13;97840.47;4918460;29;1105;-73
2023/06/29 07:23:00;;;;;;;;;;;;;;;22.66;30.03;97849.56;4902683;29;1168;-73
2023/06/29 07:25:25;;;;;;;;;;;;;;;22.58;30.15;97838.41;4918191;29;959;-73
2023/06/29 07:27:50;;;;;;;;;;;;;;;22.83;29.52;97846.09;4918177;29;1084;-73
2023/06/29 07:30:16;;;;;;;;;;;;;;;22.75;30.05;97847.59;4918804;29;991;-73
2023/06/29 07:32:41;;;;;;;;;;;;;;;22.80;29.80;97838.53;4918333;29;1144;-74
2023/06/29 07:35:07;;;;;;;;;;;;;;;22.85;29.75;97840.78;4920233;29;1887;-74
2023/06/29 07:37:34;;;;;;;;;;;;;;;22.81;29.92;97848.63;4921407;29;1025;-74
2023/06/29 07:40:00;;;;;;;;;;;;;;;22.77;30.10;97842.25;4921412;29;1054;-74
2023/06/29 07:42:26;;;;;;;;;;;;;;;22.72;30.06;97848.50;4937592;29;954;-75
2023/06/29 07:44:51;;;;;;;;;;;;;;;22.75;29.71;97846.81;4925697;28;977;-74
2023/06/29 07:47:17;;;;;;;;;;;;;;;22.66;29.86;97846.72;4975616;28;1074;-75
2023/06/29 07:49:42;;;;;;;;;;;;;;;22.85;29.61;97848.50;4975786;28;970;-75
2023/06/29 07:52:08;;;;;;;;;;;;;;;22.84;29.60;97847.69;4993443;28;943;-74
2023/06/29 07:54:33;;;;;;;;;;;;;;;22.61;30.10;97848.06;4998079;28;1963;-74
2023/06/29 07:56:59;;;;;;;;;;;;;;;22.49;30.16;97851.72;5030096;28;898;-74
2023/06/29 07:59:24;;;;;;;;;;;;;;;22.48;30.05;97850.13;5018903;28;1249;-74
2023/06/29 08:01:50;;;;;;;;;;;;;;;22.56;30.06;97860.00;5036543;28;739;-75
2023/06/29 08:04:16;;;;;;;;;;;;;;;22.63;29.95;97856.91;5036183;28;738;-75
2023/06/29 08:06:43;;;;;;;;;;;;;;;22.54;29.80;97843.44;5035167;28;811;-75
2023/06/29 08:09:12;;;;;;;;;;;;;;;22.64;29.75;97838.66;5036218;28;1128;-75
2023/06/29 08:11:38;;;;;;;;;;;;;;;22.68;29.48;97847.81;5035889;28;806;-74
2023/06/29 08:14:04;;;;;;;;;;;;;;;22.77;29.21;97855.66;5035982;28;916;-75
2023/06/29 08:16:29;;;;;;;;;;;;;;;22.87;29.28;97843.94;5036544;28;1961;-74
2023/06/29 08:18:56;;;;;;;;;;;;;;;22.73;29.51;97850.09;5034836;28;1051;-75
2023/06/29 08:21:22;;;;;;;;;;;;;;;22.61;29.88;97853.75;5035155;28;1009;-74
2023/06/29 08:23:49;;;;;;;;;;;;;;;22.52;29.88;97850.81;5035194;28;953;-74
2023/06/29 08:26:15;;;;;;;;;;;;;;;22.60;29.72;97855.00;5036110;28;937;-75
2023/06/29 08:28:41;;;;;;;;;;;;;;;22.63;29.77;97849.19;5019009;28;1370;-74
2023/06/29 08:31:06;;;;;;;;;;;;;;;22.73;29.65;97850.09;4997824;28;1552;-75
2023/06/29 08:33:31;;;;;;;;;;;;;;;22.70;29.74;97844.56;5014316;28;885;-75
2023/06/29 08:35:57;;;;;;;;;;;;;;;22.70;29.50;97851.03;4994321;28;1898;-74
2023/06/29 08:38:22;;;;;;;;;;;;;;;22.71;29.60;97846.94;4978118;28;1027;-74
2023/06/29 08:40:48;;;;;;;;;;;;;;;22.79;29.43;97842.59;4978094;28;984;-75
2023/06/29 08:43:15;;;;;;;;;;;;;;;22.68;29.87;97841.38;4978434;28;934;-74
2023/06/29 08:45:41;;;;;;;;;;;;;;;22.67;29.71;97828.44;4962497;28;966;-74
2023/06/29 08:48:07;;;;;;;;;;;;;;;22.69;29.66;97838.09;4978512;28;933;-74
2023/06/29 08:50:33;;;;;;;;;;;;;;;22.63;29.81;97835.00;4962190;28;991;-75
2023/06/29 08:52:58;;;;;;;;;;;;;;;22.83;29.55;97831.13;4962333;28;982;-74
2023/06/29 08:55:24;;;;;;;;;;;;;;;22.67;29.51;97834.91;4994132;28;1965;-74
2023/06/29 08:57:49;;;;;;;;;;;;;;;22.81;29.36;97823.09;4958613;28;961;-75
2023/06/29 09:00:15;;;;;;;;;;;;;;;22.79;29.57;97828.41;4958856;28;1659;-74
2023/06/29 09:02:41;;;;;;;;;;;;;;;22.80;29.33;97827.19;4943009;28;1223;-74
2023/06/29 09:05:06;;;;;;;;;;;;;;;22.68;29.60;97830.81;4958658;28;937;-75
2023/06/29 09:07:33;;;;;;;;;;;;;;;22.81;29.57;97830.81;4958783;28;1382;-75
2023/06/29 09:09:59;;;;;;;;;;;;;;;22.72;29.62;97825.81;4962522;28;958;-75
2023/06/29 09:12:26;;;;;;;;;;;;;;;22.81;29.47;97831.59;4980851;28;1084;-74
2023/06/29 09:14:52;;;;;;;;;;;;;;;22.76;29.45;97820.81;4981404;28;1898;-75
2023/06/29 09:17:17;;;;;;;;;;;;;;;22.79;29.73;97825.56;4965803;28;1069;-75
2023/06/29 09:19:56;;;;;;;;;;;;;;;22.79;29.84;97819.88;4965792;28;1361;-75
2023/06/29 09:22:21;;;;;;;;;;;;;;;22.92;29.59;97819.13;4997706;28;929;-75
2023/06/29 09:24:54;;;;;;;;;;;;;;;22.80;29.44;97813.00;4981639;28;734;-75
2023/06/29 09:27:20;;;;;;;;;;;;;;;22.60;30.07;97813.25;4965293;28;957;-74
2023/06/29 09:29:49;;;;;;;;;;;;;;;22.78;29.76;97814.69;5032561;28;896;-74
2023/06/29 09:32:14;;;;;;;;;;;;;;;22.98;29.55;97820.09;5022006;28;1377;-76
2023/06/29 09:34:43;;;;;;;;;;;;;;;23.01;29.48;97813.53;5037897;28;1910;-75
2023/06/29 09:37:09;;;;;;;;;;;;;;;23.04;29.39;97823.94;5017270;28;1105;-74
2023/06/29 09:39:34;;;;;;;;;;;;;;;22.92;29.75;97816.28;5000961;28;1113;-74
2023/06/29 09:42:00;;;;;;;;;;;;;;;22.75;30.00;97824.91;5017350;28;908;-75
2023/06/29 09:44:25;;;;;;;;;;;;;;;22.85;29.65;97829.44;4984541;28;1088;-75
2023/06/29 09:46:51;;;;;;;;;;;;;;;23.00;29.60;97834.63;5017091;28;963;-75
2023/06/29 09:49:20;;;;;;;;;;;;;;;23.13;29.17;97824.03;5000575;28;1321;-75
2023/06/29 09:51:48;;;;;;;;;;;;;;;22.90;29.64;97830.09;5000765;28;1055;-74
2023/06/29 09:54:17;;;;;;;;;;;;;;;22.86;29.55;97828.19;5000703;28;1099;-75
2023/06/29 09:56:44;;;;;;;;;;;;;;;22.69;29.94;97821.06;5016850;28;1992;-75
2023/06/29 09:59:12;;;;;;;;;;;;;;;22.70;30.10;97817.00;4984103;28;947;-75
2023/06/29 10:01:40;;;;;;;;;;;;;;;22.79;30.11;97814.22;5016868;28;866;-74
2023/06/29 10:04:06;;;;;;;;;;;;;;;22.88;29.72;97810.72;5000269;28;924;-74
2023/06/29 10:06:38;;;;;;;;;;;;;;;22.73;29.99;97815.25;4977593;28;985;-74
2023/06/29 10:09:04;;;;;;;;;;;;;;;22.91;29.86;97809.81;4978435;28;1063;-74
2023/06/29 10:11:31;;;;;;;;;;;;;;;22.79;29.93;97819.09;4964676;28;1048;-74
2023/06/29 10:14:02;;;;;;;;;;;;;;;22.93;29.79;97809.34;4948819;28;1049;-74
2023/06/29 10:16:29;;;;;;;;;;;;;;;22.91;29.64;97815.50;4964621;28;2068;-74
2023/06/29 10:18:54;;;;;;;;;;;;;;;23.05;29.40;97808.50;4997143;28;1041;-74
2023/06/29 10:21:20;;;;;;;;;;;;;;;22.90;29.74;97813.09;4976869;28;1147;-74
2023/06/29 10:23:45;;;;;;;;;;;;;;;22.85;30.05;97809.56;4961567;28;1017;-74
2023/06/29 10:26:11;;;;;;;;;;;;;;;23.02;29.49;97809.44;4961559;28;969;-74
2023/06/29 10:28:36;;;;;;;;;;;;;;;22.84;29.98;97810.81;4977859;28;1118;-74
2023/06/29 10:31:02;;;;;;;;;;;;;;;22.66;30.15;97813.47;4960930;28;1101;-74
2023/06/29 10:33:27;;;;;;;;;;;;;;;22.75;29.97;97813.56;4977355;28;1010;-74
2023/06/29 10:35:57;;;;;;;;;;;;;;;22.93;29.83;97817.84;4977558;28;1922;-74
2023/06/29 10:38:26;;;;;;;;;;;;;;;22.88;29.86;97811.50;4976887;28;942;-74
2023/06/29 10:40:52;;;;;;;;;;;;;;;22.70;30.07;97811.31;4961232;28;1035;-74
2023/06/29 10:43:17;;;;;;;;;;;;;;;22.88;29.96;97808.66;4985825;28;936;-74
2023/06/29 10:45:43;;;;;;;;;;;;;;;22.92;29.64;97813.44;5015829;28;965;-76
2023/06/29 10:48:09;;;;;;;;;;;;;;;22.92;29.75;97813.44;5016505;28;1022;-74
2023/06/29 10:50:35;;;;;;;;;;;;;;;23.05;29.60;97808.50;4999719;28;1005;-74
2023/06/29 10:53:02;;;;;;;;;;;;;;;22.87;29.97;97803.44;5012859;28;1034;-74
2023/06/29 10:55:31;;;;;;;;;;;;;;;22.74;29.88;97806.31;5017380;28;1973;-73
2023/06/29 10:57:59;;;;;;;;;;;;;;;22.69;30.27;97809.72;5016952;28;1063;-75
2023/06/29 11:00:25;;;;;;;;;;;;;;;22.68;30.26;97810.97;5016897;28;886;-74
2023/06/29 11:02:51;;;;;;;;;;;;;;;22.57;30.43;97813.38;5017776;28;907;-74
2023/06/29 11:05:17;;;;;;;;;;;;;;;22.73;30.26;97804.72;5017875;28;852;-74
2023/06/29 11:07:43;;;;;;;;;;;;;;;22.86;30.01;97802.66;5018108;28;1203;-74
2023/06/29 11:10:09;;;;;;;;;;;;;;;22.93;29.73;97800.84;5017621;28;881;-74
2023/06/29 11:12:38;;;;;;;;;;;;;;;22.84;29.83;97799.44;5033304;28;1285;-74
2023/06/29 11:15:08;;;;;;;;;;;;;;;22.86;29.67;97796.97;5016386;28;1979;-74
2023/06/29 11:17:34;;;;;;;;;;;;;;;22.64;30.08;97796.13;5016569;28;960;-74
2023/06/29 11:19:59;;;;;;;;;;;;;;;22.75;30.02;97795.75;5000428;28;832;-74
2023/06/29 11:22:26;;;;;;;;;;;;;;;22.76;30.26;97792.47;5016493;28;1263;-74
2023/06/29 11:24:52;;;;;;;;;;;;;;;22.84;29.68;97796.63;5016218;28;961;-75
2023/06/29 11:27:17;;;;;;;;;;;;;;;22.71;30.17;97801.53;5016263;28;866;-74
2023/06/29 11:29:43;;;;;;;;;;;;;;;22.63;30.20;97794.53;4999757;28;944;-75
2023/06/29 11:32:11;;;;;;;;;;;;;;;22.88;29.81;97791.66;5016646;28;978;-74
2023/06/29 11:34:37;;;;;;;;;;;;;;;23.03;29.74;97785.47;5016525;28;1129;-75
2023/06/29 11:37:03;;;;;;;;;;;;;;;23.03;29.45;97786.25;5000003;28;1231;-74
2023/06/29 11:39:30;;;;;;;;;;;;;;;22.72;30.19;97791.78;5017467;28;990;-74
2023/06/29 11:41:55;;;;;;;;;;;;;;;22.77;30.04;97794.03;5016320;28;1014;-74
2023/06/29 11:44:24;;;;;;;;;;;;;;;22.83;29.88;97780.84;5016185;28;1311;-74
2023/06/29 11:46:50;;;;;;;;;;;;;;;22.65;30.15;97792.03;4999845;28;1124;-74
2023/06/29 11:49:15;;;;;;;;;;;;;;;22.74;30.05;97780.78;5017124;28;989;-75
2023/06/29 11:51:41;;;;;;;;;;;;;;;23.01;29.89;97779.47;5015922;28;954;-73
2023/06/29 11:54:07;;;;;;;;;;;;;;;23.02;29.88;97783.91;5000014;28;1037;-75
2023/06/29 11:56:36;;;;;;;;;;;;;;;22.84;30.25;97788.09;4999363;28;1898;-74
2023/06/29 11:59:06;;;;;;;;;;;;;;;22.91;30.05;97775.75;4999260;28;1005;-75
2023/06/29 12:01:32;;;;;;;;;;;;;;;22.98;29.96;97780.38;4999859;28;1156;-74
2023/06/29 12:03:57;;;;;;;;;;;;;;;22.95;30.03;97781.28;5017072;28;991;-74
2023/06/29 12:06:23;;;;;;;;;;;;;;;22.74;30.38;97786.47;4999595;28;908;-74
2023/06/29 12:08:51;;;;;;;;;;;;;;;22.82;30.29;97784.94;4999273;28;1311;-75
2023/06/29 12:11:20;;;;;;;;;;;;;;;22.83;30.35;97786.53;4983172;28;1105;-74
2023/06/29 12:13:45;;;;;;;;;;;;;;;23.10;29.73;97785.22;5015973;28;957;-75
2023/06/29 12:16:11;;;;;;;;;;;;;;;23.15;29.71;97773.25;5015872;28;1907;-74
2023/06/29 12:18:36;;;;;;;;;;;;;;;22.93;29.82;97778.13;5015738;28;1550;-75
2023/06/29 12:21:02;;;;;;;;;;;;;;;23.02;29.69;97775.38;5016989;28;970;-74
2023/06/29 12:23:28;;;;;;;;;;;;;;;23.03;30.07;97772.06;5015562;28;983;-74
2023/06/29 12:25:53;;;;;;;;;;;;;;;23.17;29.73;97772.81;4998328;28;1307;-74
2023/06/29 12:28:19;;;;;;;;;;;;;;;22.95;30.01;97769.94;5015601;28;1416;-73
2023/06/29 12:30:44;;;;;;;;;;;;;;;22.69;30.60;97774.88;5015409;28;956;-74
2023/06/29 12:33:10;;;;;;;;;;;;;;;23.03;29.93;97771.28;5015529;28;936;-74
2023/06/29 12:35:36;;;;;;;;;;;;;;;22.81;30.27;97777.69;5015524;28;1973;-74
2023/06/29 12:38:02;;;;;;;;;;;;;;;22.84;30.53;97771.09;5016372;28;1017;-74
2023/06/29 12:40:27;;;;;;;;;;;;;;;23.01;30.02;97763.25;5015427;28;915;-73
2023/06/29 12:42:53;;;;;;;;;;;;;;;22.80;30.27;97755.47;4999620;28;878;-74
2023/06/29 12:45:19;;;;;;;;;;;;;;;22.80;30.37;97747.75;5018457;28;1036;-74
2023/06/29 12:47:45;;;;;;;;;;;;;;;22.91;30.32;97753.06;5002276;28;905;-74
2023/06/29 12:50:10;;;;;;;;;;;;;;;22.91;30.08;97753.06;4963035;28;1054;-74
2023/06/29 12:52:36;;;;;;;;;;;;;;;22.94;30.25;97745.66;4963176;28;973;-75
2023/06/29 12:55:01;;;;;;;;;;;;;;;23.06;29.94;97753.34;4963016;28;1985;-74